Accueil
METAR-TAF:

METAR-TAF

Aéroports :

Aéroport de Florø

Florø, Norvège

latitude: 61-35N, longitude: 005-02E, altitude: 0 m

Observation

Le bulletin a été fait il y a 34 minutes, à 07:20 UTC
Vent 10 kt de est/sud-est
Température 2°C
Humidité 64%
Pression 1030 hPa
Visibilité 10 km ou plus
Quelques nuages à une hauteur de 2500 ft

METAR: ENFL 140720Z 12010KT 9999 FEW025 02/M04 Q1030

Heure: 08:54 (07:54 UTC)

Prévision

Le bulletin a été fait il y a 2 heures et 54 minutes, à 05:00 UTC
Prévision valable du 14 à 06 UTC au 14 à 15 UTC
Vent 12 kt de est
Visibilité 10 km ou plus
Quelques nuages à une hauteur de 2000 ft

TAF: ENFL 140500Z 1406/1415 10012KT 9999 FEW020

Observations et prévisions météorologiques de plus de 4000 aéroports (messages METAR et TAF).

Les stations disponibles sont représentées par des disques jaunes et rouges sur la carte.

Passer la souris dessus pour voir le nom de la station.

Cliquer dessus pour voir les observations et prévisions météorologiques.

Pour changer de carte: cliquez sur les boutons verts avec une croix noire pour zoomer, sur le bouton vert avec un tiret pour effectuer un zoom arrière, ou sur les flèches vertes pour les cartes adjacentes.


METAR-TAF: